createdAt,value
2022-09-23T00:01:09.202Z,95302.97
2022-09-23T00:03:38.548Z,95303.50
2022-09-23T00:06:11.346Z,95304.47
2022-09-23T00:08:39.316Z,95302.47
2022-09-23T00:11:11.881Z,95295.13
2022-09-23T00:13:40.543Z,95284.56
2022-09-23T00:16:16.693Z,95289.72
2022-09-23T00:18:44.299Z,95287.00
2022-09-23T00:21:14.613Z,95284.56
2022-09-23T00:23:43.682Z,95277.09
2022-09-23T00:26:15.953Z,95285.13
2022-09-23T00:28:43.965Z,95279.56
2022-09-23T00:31:17.104Z,95274.81
2022-09-23T00:33:44.572Z,95277.53
2022-09-23T00:36:15.805Z,95277.13
2022-09-23T00:38:44.083Z,95285.81
2022-09-23T00:41:12.200Z,95288.69
2022-09-23T00:43:53.032Z,95287.06
2022-09-23T00:46:22.291Z,95290.59
2022-09-23T00:48:55.761Z,95280.56
2022-09-23T00:51:25.649Z,95284.75
2022-09-23T00:53:53.118Z,95280.41
2022-09-23T00:56:22.399Z,95286.53
2022-09-23T00:58:50.608Z,95284.63
2022-09-23T01:01:19.401Z,95281.50
2022-09-23T01:03:47.918Z,95275.94
2022-09-23T01:06:15.092Z,95281.38
2022-09-23T01:08:46.166Z,95287.63
2022-09-23T01:11:29.032Z,95288.41
2022-09-23T01:14:14.330Z,95288.72
2022-09-23T01:16:52.842Z,95295.09
2022-09-23T01:19:35.153Z,95291.16
2022-09-23T01:22:30.645Z,95293.31
2022-09-23T01:25:19.216Z,95289.66
2022-09-23T01:27:59.263Z,95290.88
2022-09-23T01:30:47.976Z,95287.63
2022-09-23T01:33:28.399Z,95296.44
2022-09-23T01:36:24.259Z,95286.81
2022-09-23T01:39:01.264Z,95302.53
2022-09-23T01:41:35.489Z,95293.31
2022-09-23T01:44:23.179Z,95301.31
2022-09-23T01:47:14.340Z,95301.59
2022-09-23T01:49:57.464Z,95314.47
2022-09-23T01:52:35.545Z,95304.97
2022-09-23T01:55:12.137Z,95299.41
2022-09-23T01:57:48.990Z,95301.72
2022-09-23T02:00:18.404Z,95302.81
2022-09-23T02:02:49.791Z,95293.59
2022-09-23T02:05:30.472Z,95301.03
2022-09-23T02:08:06.156Z,95298.47
2022-09-23T02:10:37.260Z,95298.47
2022-09-23T02:13:13.961Z,95292.63
2022-09-23T02:15:47.948Z,95294.00
2022-09-23T02:18:21.275Z,95292.38
2022-09-23T02:20:51.196Z,95288.69
2022-09-23T02:23:52.047Z,95301.97
2022-09-23T02:26:51.638Z,95300.91
2022-09-23T02:29:33.871Z,95291.38
2022-09-23T02:32:10.216Z,95295.84
2022-09-23T02:34:55.677Z,95301.00
2022-09-23T02:37:43.658Z,95294.25
2022-09-23T02:40:13.640Z,95297.91
2022-09-23T02:42:52.957Z,95290.88
2022-09-23T02:45:20.098Z,95300.91
2022-09-23T02:47:53.433Z,95300.50
2022-09-23T02:50:22.436Z,95305.53
2022-09-23T02:52:49.874Z,95305.66
2022-09-23T02:55:18.790Z,95294.81
2022-09-23T02:57:46.193Z,95299.13
2022-09-23T03:00:13.669Z,95302.53
2022-09-23T03:02:40.493Z,95301.97
2022-09-23T03:05:24.254Z,95303.72
2022-09-23T03:08:03.046Z,95306.72
2022-09-23T03:10:48.606Z,95308.19
2022-09-23T03:13:51.386Z,95307.91
2022-09-23T03:16:34.690Z,95309.28
2022-09-23T03:19:33.283Z,95315.50
2022-09-23T03:22:09.143Z,95314.94
2022-09-23T03:24:38.047Z,95307.63
2022-09-23T03:27:13.921Z,95302.47
2022-09-23T03:29:48.023Z,95306.50
2022-09-23T03:32:17.349Z,95306.22
2022-09-23T03:34:46.474Z,95307.53
2022-09-23T03:37:41.046Z,95309.69
2022-09-23T03:40:25.125Z,95309.41
2022-09-23T03:42:54.112Z,95304.66
2022-09-23T03:45:26.256Z,95307.31
2022-09-23T03:47:53.412Z,95305.81
2022-09-23T03:50:21.500Z,95314.47
2022-09-23T03:52:50.592Z,95306.31
2022-09-23T03:55:18.823Z,95309.97
2022-09-23T03:57:45.975Z,95314.00
2022-09-23T04:00:14.239Z,95317.88
2022-09-23T04:02:41.440Z,95327.59
2022-09-23T04:05:10.080Z,95323.28
2022-09-23T04:07:36.877Z,95324.34
2022-09-23T04:10:05.127Z,95319.19
2022-09-23T04:12:32.082Z,95335.72
2022-09-23T04:14:58.996Z,95328.50
2022-09-23T04:17:26.290Z,95323.84
2022-09-23T04:19:53.066Z,95338.91
2022-09-23T04:22:20.036Z,95334.25
2022-09-23T04:24:47.027Z,95330.47
2022-09-23T04:27:13.992Z,95337.06
2022-09-23T04:29:40.740Z,95339.66
2022-09-23T04:32:07.579Z,95336.84
2022-09-23T04:34:34.355Z,95336.84
2022-09-23T04:37:01.227Z,95346.19
2022-09-23T04:39:28.032Z,95341.84
2022-09-23T04:41:56.792Z,95343.47
2022-09-23T04:44:23.597Z,95350.81
2022-09-23T04:46:50.446Z,95360.84
2022-09-23T04:49:17.733Z,95362.47
2022-09-23T04:51:45.182Z,95359.78
2022-09-23T04:54:12.879Z,95361.16
2022-09-23T04:56:39.980Z,95367.66
2022-09-23T04:59:07.382Z,95360.41
2022-09-23T05:01:35.162Z,95366.94
2022-09-23T05:04:06.148Z,95367.34
2022-09-23T05:06:35.094Z,95370.09
2022-09-23T05:09:03.068Z,95355.34
2022-09-23T05:11:34.164Z,95376.28
2022-09-23T05:14:01.203Z,95376.81
2022-09-23T05:16:28.045Z,95377.63
2022-09-23T05:18:55.091Z,95372.59
2022-09-23T05:21:24.668Z,95381.13
2022-09-23T05:23:55.271Z,95375.31
2022-09-23T05:26:25.588Z,95382.41
2022-09-23T05:28:54.050Z,95383.09
2022-09-23T05:31:26.659Z,95386.91
2022-09-23T05:33:57.531Z,95380.41
2022-09-23T05:36:25.581Z,95381.53
2022-09-23T05:38:52.904Z,95392.41
2022-09-23T05:41:23.277Z,95394.09
2022-09-23T05:43:54.577Z,95394.91
2022-09-23T05:46:28.093Z,95389.81
2022-09-23T05:49:01.181Z,95393.91
2022-09-23T05:51:31.147Z,95386.72
2022-09-23T05:53:59.026Z,95380.09
2022-09-23T05:56:27.880Z,95380.63
2022-09-23T05:58:57.225Z,95380.94
2022-09-23T06:01:25.358Z,95384.44
2022-09-23T06:03:54.510Z,95372.78
2022-09-23T06:06:27.999Z,95373.72
2022-09-23T06:08:54.905Z,95379.53
2022-09-23T06:11:21.840Z,95362.44
2022-09-23T06:13:49.485Z,95371.09
2022-09-23T06:16:16.767Z,95359.38
2022-09-23T06:18:45.396Z,95368.88
2022-09-23T06:21:14.755Z,95370.75
2022-09-23T06:23:42.236Z,95382.69
2022-09-23T06:26:11.695Z,95367.38
2022-09-23T06:28:39.496Z,95369.97
2022-09-23T06:31:14.103Z,95378.53
2022-09-23T06:33:42.955Z,95370.25
2022-09-23T06:36:10.917Z,95355.59
2022-09-23T06:38:44.275Z,95373.78
2022-09-23T06:41:12.499Z,95381.50
2022-09-23T06:43:39.490Z,95381.88
2022-09-23T06:46:08.256Z,95370.72
2022-09-23T06:48:40.813Z,95370.81
2022-09-23T06:51:19.125Z,95374.22
2022-09-23T06:53:49.514Z,95376.13
2022-09-23T06:56:18.032Z,95377.47
2022-09-23T06:58:44.996Z,95377.84
2022-09-23T07:01:22.078Z,95381.78
2022-09-23T07:04:02.806Z,95368.72
2022-09-23T07:06:32.487Z,95380.09
2022-09-23T07:08:59.368Z,95382.91
2022-09-23T07:11:27.097Z,95378.94
2022-09-23T07:13:54.033Z,95390.06
2022-09-23T07:16:21.457Z,95385.91
2022-09-23T07:18:48.393Z,95390.06
2022-09-23T07:21:18.386Z,95392.56
2022-09-23T07:23:47.139Z,95396.72
2022-09-23T07:26:15.479Z,95392.31
2022-09-23T07:28:42.351Z,95399.56
2022-09-23T07:31:12.553Z,95393.13
2022-09-23T07:33:44.349Z,95399.94
2022-09-23T07:36:15.178Z,95402.22
2022-09-23T07:38:45.464Z,95399.03
2022-09-23T07:41:16.137Z,95400.50
2022-09-23T07:43:44.261Z,95401.91
2022-09-23T07:46:17.808Z,95406.72
2022-09-23T07:48:45.981Z,95405.97
2022-09-23T07:51:19.155Z,95406.59
2022-09-23T07:53:51.334Z,95406.94
2022-09-23T07:56:19.553Z,95409.00
2022-09-23T07:59:00.456Z,95397.22
2022-09-23T08:01:35.808Z,95409.94
2022-09-23T08:04:08.563Z,95402.38
2022-09-23T08:06:36.011Z,95404.88
2022-09-23T08:09:02.881Z,95411.09
2022-09-23T08:11:29.820Z,95415.50
2022-09-23T08:13:57.508Z,95412.97
2022-09-23T08:16:24.417Z,95413.19
2022-09-23T08:18:51.352Z,95401.09
2022-09-23T08:21:22.281Z,95398.16
2022-09-23T08:23:49.562Z,95414.13
2022-09-23T08:26:21.550Z,95396.91
2022-09-23T08:28:50.122Z,95400.72
2022-09-23T08:31:17.111Z,95392.31
2022-09-23T08:33:44.614Z,95402.69
2022-09-23T08:36:11.445Z,95398.19
2022-09-23T08:38:38.259Z,95394.13
2022-09-23T08:41:20.636Z,95392.28
2022-09-23T08:43:51.470Z,95390.66
2022-09-23T08:46:24.437Z,95399.44
2022-09-23T08:48:52.830Z,95395.28
2022-09-23T08:51:29.578Z,95394.00
2022-09-23T08:53:58.464Z,95381.53
2022-09-23T08:56:25.360Z,95382.13
2022-09-23T08:59:07.702Z,95384.38
2022-09-23T09:01:40.697Z,95388.78
2022-09-23T09:04:13.344Z,95383.31
2022-09-23T09:06:53.000Z,95375.81
2022-09-23T09:09:40.258Z,95369.97
2022-09-23T09:12:24.363Z,95378.66
2022-09-23T09:15:07.702Z,95381.44
2022-09-23T09:17:59.398Z,95371.25
2022-09-23T09:20:29.085Z,95371.72
2022-09-23T09:23:00.755Z,95380.59
2022-09-23T09:25:43.137Z,95368.75
2022-09-23T09:28:21.788Z,95370.50
2022-09-23T09:30:54.348Z,95375.31
2022-09-23T09:33:28.308Z,95368.59
2022-09-23T09:36:09.138Z,95373.56
2022-09-23T09:38:37.111Z,95367.56
2022-09-23T09:41:32.832Z,95371.34
2022-09-23T09:44:03.665Z,95378.13
2022-09-23T09:46:51.294Z,95385.06
2022-09-23T09:49:47.071Z,95381.75
2022-09-23T09:52:18.291Z,95385.09
2022-09-23T09:54:45.068Z,95365.75
2022-09-23T09:57:30.713Z,95368.66
2022-09-23T10:00:26.563Z,95374.63
2022-09-23T10:02:55.753Z,95365.06
2022-09-23T10:05:27.126Z,95357.38
2022-09-23T10:07:54.915Z,95357.41
2022-09-23T10:10:33.707Z,95360.44
2022-09-23T10:13:15.253Z,95368.19
2022-09-23T10:15:45.315Z,95354.84
2022-09-23T10:18:32.054Z,95359.50
2022-09-23T10:21:09.758Z,95336.94
2022-09-23T10:23:43.911Z,95355.22
2022-09-23T10:26:12.629Z,95349.00
2022-09-23T10:28:50.670Z,95337.50
2022-09-23T10:31:29.173Z,95332.31
2022-09-23T10:34:15.873Z,95335.03
2022-09-23T10:36:44.672Z,95337.19
2022-09-23T10:39:30.223Z,95343.75
2022-09-23T10:42:25.428Z,95330.72
2022-09-23T10:45:48.265Z,95327.19
2022-09-23T10:48:50.403Z,95331.84
2022-09-23T10:51:26.856Z,95317.53
2022-09-23T10:54:35.296Z,95314.47
2022-09-23T10:57:33.195Z,95320.78
2022-09-23T11:00:11.257Z,95322.78
2022-09-23T11:02:52.923Z,95321.13
2022-09-23T11:05:26.596Z,95309.50
2022-09-23T11:08:34.636Z,95311.69
2022-09-23T11:11:23.224Z,95305.09
2022-09-23T11:14:04.360Z,95305.91
2022-09-23T11:16:49.735Z,95296.13
2022-09-23T11:19:54.328Z,95301.38
2022-09-23T11:22:24.115Z,95292.38
2022-09-23T11:25:23.786Z,95282.50
2022-09-23T11:28:30.285Z,95298.75
2022-09-23T11:30:57.104Z,95287.97
2022-09-23T11:33:42.201Z,95284.59
2022-09-23T11:36:16.577Z,95277.94
2022-09-23T11:38:48.911Z,95273.50
2022-09-23T11:41:25.574Z,95277.78
2022-09-23T11:44:21.613Z,95273.69
2022-09-23T11:47:11.148Z,95266.94
2022-09-23T11:49:49.792Z,95271.44
2022-09-23T11:52:20.638Z,95275.47
2022-09-23T11:55:22.582Z,95266.63
2022-09-23T11:58:01.968Z,95252.31
2022-09-23T12:00:34.493Z,95263.22
2022-09-23T12:03:07.173Z,95265.06
2022-09-23T12:05:41.948Z,95268.03
2022-09-23T12:08:32.474Z,95267.22
2022-09-23T12:11:31.829Z,95271.75
2022-09-23T12:14:26.877Z,95273.78
2022-09-23T12:16:56.612Z,95275.16
2022-09-23T12:19:23.483Z,95272.72
2022-09-23T12:22:05.440Z,95268.50
2022-09-23T12:24:52.001Z,95264.88
2022-09-23T12:27:28.731Z,95253.63
2022-09-23T12:30:01.615Z,95264.59
2022-09-23T12:32:29.127Z,95258.19
2022-09-23T12:34:56.682Z,95243.97
2022-09-23T12:37:36.559Z,95257.19
2022-09-23T12:40:16.638Z,95252.56
2022-09-23T12:42:46.524Z,95264.03
2022-09-23T12:45:35.732Z,95257.16
2022-09-23T12:48:05.373Z,95256.22
2022-09-23T12:50:56.155Z,95265.50
2022-09-23T12:53:35.037Z,95264.78
2022-09-23T12:56:15.484Z,95263.97
2022-09-23T12:58:42.433Z,95268.31
2022-09-23T13:01:20.315Z,95265.13
2022-09-23T13:04:10.086Z,95263.00
2022-09-23T13:06:53.575Z,95248.25
2022-09-23T13:09:25.071Z,95255.34
2022-09-23T13:11:53.592Z,95259.38
2022-09-23T13:14:27.376Z,95253.34
2022-09-23T13:16:56.328Z,95254.88
2022-09-23T13:19:25.931Z,95264.34
2022-09-23T13:22:11.576Z,95253.50
2022-09-23T13:24:45.173Z,95262.00
2022-09-23T13:27:17.760Z,95250.72
2022-09-23T13:29:55.348Z,95250.25
2022-09-23T13:32:29.151Z,95250.66
2022-09-23T13:35:16.664Z,95253.88
2022-09-23T13:37:48.952Z,95260.53
2022-09-23T13:40:21.252Z,95253.97
2022-09-23T13:42:53.857Z,95243.09
2022-09-23T13:45:24.409Z,95247.34
2022-09-23T13:47:53.222Z,95242.94
2022-09-23T13:50:23.130Z,95235.69
2022-09-23T13:52:55.962Z,95241.13
2022-09-23T13:55:28.055Z,95244.34
2022-09-23T13:58:00.582Z,95231.06
2022-09-23T14:00:27.738Z,95243.94
2022-09-23T14:02:54.602Z,95236.09
2022-09-23T14:05:27.334Z,95236.09
2022-09-23T14:07:55.842Z,95235.72
2022-09-23T14:10:24.959Z,95234.09
2022-09-23T14:12:53.012Z,95230.84
2022-09-23T14:15:21.164Z,95231.88
2022-09-23T14:17:50.257Z,95229.84
2022-09-23T14:20:20.768Z,95235.53
2022-09-23T14:22:47.917Z,95229.25
2022-09-23T14:25:17.041Z,95229.22
2022-09-23T14:27:46.942Z,95225.88
2022-09-23T14:30:20.704Z,95228.63
2022-09-23T14:32:48.043Z,95229.44
2022-09-23T14:35:23.541Z,95233.44
2022-09-23T14:38:12.847Z,95226.47
2022-09-23T14:41:15.843Z,95221.97
2022-09-23T14:44:00.096Z,95224.00
2022-09-23T14:46:29.854Z,95226.84
2022-09-23T14:49:14.050Z,95228.59
2022-09-23T14:51:57.818Z,95219.44
2022-09-23T14:54:33.265Z,95210.63
2022-09-23T14:57:18.485Z,95221.50
2022-09-23T14:59:53.291Z,95218.59
2022-09-23T15:02:42.484Z,95214.88
2022-09-23T15:05:17.639Z,95224.84
2022-09-23T15:07:48.852Z,95211.63
2022-09-23T15:10:20.082Z,95221.97
2022-09-23T15:12:50.582Z,95220.75
2022-09-23T15:15:18.818Z,95220.78
2022-09-23T15:17:46.849Z,95235.59
2022-09-23T15:20:16.666Z,95227.81
2022-09-23T15:22:49.723Z,95230.91
2022-09-23T15:25:20.993Z,95236.78
2022-09-23T15:28:03.487Z,95228.06
2022-09-23T15:30:32.154Z,95233.72
2022-09-23T15:32:59.971Z,95220.09
2022-09-23T15:35:27.062Z,95226.56
2022-09-23T15:37:58.344Z,95228.94
2022-09-23T15:40:30.971Z,95234.19
2022-09-23T15:42:59.963Z,95250.06
2022-09-23T15:45:40.884Z,95252.41
2022-09-23T15:48:13.403Z,95252.06
2022-09-23T15:50:45.730Z,95263.03
2022-09-23T15:53:16.125Z,95268.25
2022-09-23T15:55:43.096Z,95258.38
2022-09-23T15:58:09.948Z,95274.00
2022-09-23T16:00:37.462Z,95266.63
2022-09-23T16:03:05.330Z,95273.34
2022-09-23T16:05:38.866Z,95275.84
2022-09-23T16:08:09.222Z,95269.75
2022-09-23T16:10:37.020Z,95276.97
2022-09-23T16:13:06.776Z,95278.50
2022-09-23T16:15:33.989Z,95271.91
2022-09-23T16:18:00.974Z,95268.72
2022-09-23T16:20:30.226Z,95278.50
2022-09-23T16:22:58.915Z,95286.50
2022-09-23T16:25:28.429Z,95284.16
2022-09-23T16:27:56.491Z,95282.41
2022-09-23T16:30:25.284Z,95287.94
2022-09-23T16:32:52.337Z,95285.88
2022-09-23T16:35:23.734Z,95286.38
2022-09-23T16:37:51.653Z,95287.06
2022-09-23T16:40:23.361Z,95295.41
2022-09-23T16:42:52.551Z,95297.06
2022-09-23T16:45:23.295Z,95301.63
2022-09-23T16:47:52.039Z,95305.09
2022-09-23T16:50:21.161Z,95296.50
2022-09-23T16:52:48.641Z,95308.84
2022-09-23T16:55:16.056Z,95313.13
2022-09-23T16:57:43.145Z,95314.09
2022-09-23T17:00:34.146Z,95316.41
2022-09-23T17:03:19.958Z,95320.63
2022-09-23T17:05:47.328Z,95327.28
2022-09-23T17:08:16.095Z,95329.94
2022-09-23T17:10:44.865Z,95329.75
2022-09-23T17:13:15.759Z,95332.34
2022-09-23T17:15:44.173Z,95340.63
2022-09-23T17:18:11.031Z,95342.91
2022-09-23T17:20:38.879Z,95344.03
2022-09-23T17:23:06.162Z,95348.91
2022-09-23T17:25:34.174Z,95347.59
2022-09-23T17:28:01.250Z,95348.25
2022-09-23T17:30:29.014Z,95346.97
2022-09-23T17:32:55.871Z,95340.47
2022-09-23T17:35:22.991Z,95347.25
2022-09-23T17:37:50.173Z,95351.63
2022-09-23T17:40:18.216Z,95351.34
2022-09-23T17:42:45.121Z,95348.06
2022-09-23T17:45:14.605Z,95354.22
2022-09-23T17:47:42.323Z,95357.44
2022-09-23T17:50:09.371Z,95359.53
2022-09-23T17:52:36.188Z,95356.91
2022-09-23T17:55:03.006Z,95365.16
2022-09-23T17:57:29.817Z,95351.03
2022-09-23T17:59:56.761Z,95361.03
2022-09-23T18:02:23.764Z,95364.25
2022-09-23T18:04:50.608Z,95367.13
2022-09-23T18:07:17.433Z,95367.22
2022-09-23T18:09:44.320Z,95376.44
2022-09-23T18:12:11.206Z,95375.97
2022-09-23T18:14:37.965Z,95381.63
2022-09-23T18:17:04.773Z,95382.34
2022-09-23T18:19:31.572Z,95385.09
2022-09-23T18:21:58.482Z,95384.69
2022-09-23T18:24:32.185Z,95378.19
2022-09-23T18:27:00.235Z,95385.81
2022-09-23T18:29:27.644Z,95387.28
2022-09-23T18:31:54.544Z,95375.59
2022-09-23T18:34:22.086Z,95384.78
2022-09-23T18:36:48.986Z,95387.22
2022-09-23T18:39:16.053Z,95381.03
2022-09-23T18:41:43.183Z,95391.69
2022-09-23T18:44:10.129Z,95386.28
2022-09-23T18:46:37.081Z,95391.75
2022-09-23T18:49:22.960Z,95394.00
2022-09-23T18:51:57.667Z,95388.03
2022-09-23T18:54:27.431Z,95400.28
2022-09-23T18:56:55.188Z,95397.19
2022-09-23T18:59:26.141Z,95400.72
2022-09-23T19:01:56.701Z,95401.16
2022-09-23T19:04:25.492Z,95405.69
2022-09-23T19:06:54.109Z,95393.03
2022-09-23T19:09:20.977Z,95391.06
2022-09-23T19:11:52.275Z,95405.91
2022-09-23T19:14:19.914Z,95404.88
2022-09-23T19:16:49.210Z,95406.13
2022-09-23T19:19:16.273Z,95405.47
2022-09-23T19:21:43.378Z,95399.69
2022-09-23T19:24:14.522Z,95401.47
2022-09-23T19:26:42.259Z,95406.13
2022-09-23T19:29:14.450Z,95405.91
2022-09-23T19:31:42.191Z,95404.56
2022-09-23T19:34:18.094Z,95411.78
2022-09-23T19:36:47.293Z,95412.69
2022-09-23T19:39:32.260Z,95404.69
2022-09-23T19:41:59.401Z,95405.25
2022-09-23T19:44:26.960Z,95414.91
2022-09-23T19:46:56.877Z,95410.34
2022-09-23T19:49:25.575Z,95416.47
2022-09-23T19:51:55.949Z,95417.13
2022-09-23T19:54:23.565Z,95414.53
2022-09-23T19:56:50.689Z,95412.09
2022-09-23T19:59:19.033Z,95405.69
2022-09-23T20:01:48.227Z,95407.16
2022-09-23T20:04:16.394Z,95410.72
2022-09-23T20:06:43.859Z,95409.38
2022-09-23T20:09:10.740Z,95406.41
2022-09-23T20:11:38.205Z,95404.78
2022-09-23T20:14:06.418Z,95403.44
2022-09-23T20:16:35.934Z,95401.00
2022-09-23T20:19:04.497Z,95399.09
2022-09-23T20:21:33.740Z,95390.81
2022-09-23T20:24:01.302Z,95405.06
2022-09-23T20:26:46.942Z,95405.34
2022-09-23T20:29:14.373Z,95405.78
2022-09-23T20:31:41.747Z,95412.72
2022-09-23T20:34:10.573Z,95422.53
2022-09-23T20:36:39.636Z,95414.91
2022-09-23T20:39:06.800Z,95425.25
2022-09-23T20:41:37.854Z,95422.25
2022-09-23T20:44:08.144Z,95421.31
2022-09-23T20:46:36.044Z,95420.09
2022-09-23T20:49:03.934Z,95427.72
2022-09-23T20:51:33.509Z,95421.34
2022-09-23T20:54:00.818Z,95423.09
2022-09-23T20:56:28.760Z,95435.09
2022-09-23T20:59:09.452Z,95430.75
2022-09-23T21:01:37.117Z,95425.28
2022-09-23T21:04:06.083Z,95428.53
2022-09-23T21:06:35.119Z,95441.72
2022-09-23T21:09:02.739Z,95442.69
2022-09-23T21:11:30.073Z,95438.59
2022-09-23T21:13:56.915Z,95435.78
2022-09-23T21:16:24.617Z,95444.47
2022-09-23T21:18:52.436Z,95441.50
2022-09-23T21:21:22.286Z,95438.38
2022-09-23T21:23:50.336Z,95440.84
2022-09-23T21:26:24.815Z,95432.16
2022-09-23T21:28:54.818Z,95437.19
2022-09-23T21:31:25.887Z,95431.75
2022-09-23T21:33:59.208Z,95427.84
2022-09-23T21:36:28.274Z,95438.31
2022-09-23T21:38:58.276Z,95433.94
2022-09-23T21:41:25.462Z,95430.81
2022-09-23T21:43:52.341Z,95434.94
2022-09-23T21:46:21.023Z,95444.56
2022-09-23T21:48:50.359Z,95448.47
2022-09-23T21:51:19.368Z,95445.50
2022-09-23T21:53:47.096Z,95443.34
2022-09-23T21:56:41.038Z,95457.19
2022-09-23T21:59:08.265Z,95463.53
2022-09-23T22:01:41.607Z,95457.97
2022-09-23T22:04:15.199Z,95451.44
2022-09-23T22:06:42.293Z,95445.63
2022-09-23T22:09:12.815Z,95450.63
2022-09-23T22:11:59.637Z,95452.09
2022-09-23T22:14:26.739Z,95444.50
2022-09-23T22:16:57.936Z,95455.06
2022-09-23T22:19:27.101Z,95451.78
2022-09-23T22:21:56.266Z,95458.97
2022-09-23T22:24:23.440Z,95453.38
2022-09-23T22:26:50.615Z,95452.00
2022-09-23T22:29:36.469Z,95451.31
2022-09-23T22:32:23.639Z,95451.88
2022-09-23T22:34:52.162Z,95461.09
2022-09-23T22:37:28.653Z,95457.00
2022-09-23T22:39:55.523Z,95453.75
2022-09-23T22:42:22.707Z,95457.28
2022-09-23T22:44:50.311Z,95450.75
2022-09-23T22:47:20.410Z,95457.66
2022-09-23T22:49:48.295Z,95455.06
2022-09-23T22:52:16.301Z,95452.22
2022-09-23T22:54:43.446Z,95445.00
2022-09-23T22:57:10.636Z,95452.84
2022-09-23T22:59:37.797Z,95451.34
2022-09-23T23:02:06.772Z,95449.84
2022-09-23T23:04:34.009Z,95456.06
2022-09-23T23:07:00.871Z,95458.91
2022-09-23T23:09:27.697Z,95460.38
2022-09-23T23:11:54.876Z,95458.03
2022-09-23T23:14:21.853Z,95447.03
2022-09-23T23:16:48.745Z,95452.97
2022-09-23T23:19:17.633Z,95446.44
2022-09-23T23:21:45.593Z,95455.44
2022-09-23T23:24:17.891Z,95435.56
2022-09-23T23:26:45.335Z,95460.50
2022-09-23T23:29:14.291Z,95458.75
2022-09-23T23:31:41.597Z,95451.94
2022-09-23T23:34:12.376Z,95468.06
2022-09-23T23:36:40.034Z,95451.31
2022-09-23T23:39:07.185Z,95455.78
2022-09-23T23:41:34.037Z,95451.94
2022-09-23T23:44:01.472Z,95453.81
2022-09-23T23:46:30.849Z,95443.81
2022-09-23T23:48:58.295Z,95449.19
2022-09-23T23:51:29.128Z,95444.88
2022-09-23T23:53:56.722Z,95428.31
2022-09-23T23:56:25.049Z,95439.53
2022-09-23T23:58:56.772Z,95434.50
